sensor_id;sensor_type;location;lat;lon;timestamp;P1;durP1;ratioP1;P2;durP2;ratioP2
31728;SDS011;18309;43.658;1.312;2023-05-07T00:01:17;10.50;;;2.45;;
31728;SDS011;18309;43.658;1.312;2023-05-07T00:03:43;12.23;;;3.42;;
31728;SDS011;18309;43.658;1.312;2023-05-07T00:06:10;9.73;;;2.83;;
31728;SDS011;18309;43.658;1.312;2023-05-07T00:08:37;11.13;;;2.53;;
31728;SDS011;18309;43.658;1.312;2023-05-07T00:11:03;11.85;;;2.65;;
31728;SDS011;18309;43.658;1.312;2023-05-07T00:13:30;9.60;;;2.70;;
31728;SDS011;18309;43.658;1.312;2023-05-07T00:18:27;12.82;;;3.65;;
31728;SDS011;18309;43.658;1.312;2023-05-07T00:20:53;9.13;;;2.28;;
31728;SDS011;18309;43.658;1.312;2023-05-07T00:23:19;9.15;;;2.45;;
31728;SDS011;18309;43.658;1.312;2023-05-07T00:25:45;10.60;;;2.53;;
31728;SDS011;18309;43.658;1.312;2023-05-07T00:28:10;14.10;;;2.45;;
31728;SDS011;18309;43.658;1.312;2023-05-07T00:30:36;11.02;;;2.60;;
31728;SDS011;18309;43.658;1.312;2023-05-07T00:33:02;13.88;;;2.42;;
31728;SDS011;18309;43.658;1.312;2023-05-07T00:35:28;16.55;;;3.08;;
31728;SDS011;18309;43.658;1.312;2023-05-07T00:37:54;13.98;;;2.42;;
31728;SDS011;18309;43.658;1.312;2023-05-07T00:40:20;12.30;;;2.13;;
31728;SDS011;18309;43.658;1.312;2023-05-07T00:42:46;16.35;;;2.53;;
31728;SDS011;18309;43.658;1.312;2023-05-07T00:45:14;11.32;;;2.95;;
31728;SDS011;18309;43.658;1.312;2023-05-07T00:47:40;11.93;;;2.50;;
31728;SDS011;18309;43.658;1.312;2023-05-07T00:50:06;10.77;;;2.33;;
31728;SDS011;18309;43.658;1.312;2023-05-07T00:52:36;16.98;;;2.97;;
31728;SDS011;18309;43.658;1.312;2023-05-07T00:55:04;14.10;;;2.28;;
31728;SDS011;18309;43.658;1.312;2023-05-07T00:57:36;11.65;;;2.40;;
31728;SDS011;18309;43.658;1.312;2023-05-07T01:00:06;17.60;;;2.47;;
31728;SDS011;18309;43.658;1.312;2023-05-07T01:02:34;12.73;;;2.60;;
31728;SDS011;18309;43.658;1.312;2023-05-07T01:05:00;17.02;;;3.83;;
31728;SDS011;18309;43.658;1.312;2023-05-07T01:07:28;13.15;;;2.28;;
31728;SDS011;18309;43.658;1.312;2023-05-07T01:09:54;15.00;;;2.85;;
31728;SDS011;18309;43.658;1.312;2023-05-07T01:12:20;14.27;;;2.72;;
31728;SDS011;18309;43.658;1.312;2023-05-07T01:14:49;11.38;;;1.80;;
31728;SDS011;18309;43.658;1.312;2023-05-07T01:17:15;14.90;;;2.67;;
31728;SDS011;18309;43.658;1.312;2023-05-07T01:19:41;8.48;;;2.25;;
31728;SDS011;18309;43.658;1.312;2023-05-07T01:22:09;14.07;;;2.70;;
31728;SDS011;18309;43.658;1.312;2023-05-07T01:24:39;13.93;;;2.45;;
31728;SDS011;18309;43.658;1.312;2023-05-07T01:27:06;13.68;;;2.28;;
31728;SDS011;18309;43.658;1.312;2023-05-07T01:29:31;10.60;;;2.38;;
31728;SDS011;18309;43.658;1.312;2023-05-07T01:31:58;21.63;;;3.47;;
31728;SDS011;18309;43.658;1.312;2023-05-07T01:34:27;16.65;;;2.83;;
31728;SDS011;18309;43.658;1.312;2023-05-07T01:36:57;10.73;;;2.72;;
31728;SDS011;18309;43.658;1.312;2023-05-07T01:39:24;12.30;;;2.20;;
31728;SDS011;18309;43.658;1.312;2023-05-07T01:41:51;15.65;;;2.47;;
31728;SDS011;18309;43.658;1.312;2023-05-07T01:44:21;16.33;;;3.10;;
31728;SDS011;18309;43.658;1.312;2023-05-07T01:46:47;15.77;;;2.80;;
31728;SDS011;18309;43.658;1.312;2023-05-07T01:49:14;12.65;;;2.67;;
31728;SDS011;18309;43.658;1.312;2023-05-07T01:51:42;16.67;;;2.40;;
31728;SDS011;18309;43.658;1.312;2023-05-07T01:54:09;19.13;;;2.88;;
31728;SDS011;18309;43.658;1.312;2023-05-07T01:56:35;12.32;;;3.03;;
31728;SDS011;18309;43.658;1.312;2023-05-07T01:59:01;12.32;;;1.95;;
31728;SDS011;18309;43.658;1.312;2023-05-07T02:01:27;10.57;;;2.22;;
31728;SDS011;18309;43.658;1.312;2023-05-07T02:03:53;11.73;;;2.50;;
31728;SDS011;18309;43.658;1.312;2023-05-07T02:06:19;18.98;;;2.35;;
31728;SDS011;18309;43.658;1.312;2023-05-07T02:08:45;20.10;;;3.13;;
31728;SDS011;18309;43.658;1.312;2023-05-07T02:11:12;15.15;;;2.83;;
31728;SDS011;18309;43.658;1.312;2023-05-07T02:13:38;10.07;;;2.80;;
31728;SDS011;18309;43.658;1.312;2023-05-07T02:16:04;17.45;;;2.85;;
31728;SDS011;18309;43.658;1.312;2023-05-07T02:18:31;10.65;;;2.03;;
31728;SDS011;18309;43.658;1.312;2023-05-07T02:20:57;16.35;;;3.17;;
31728;SDS011;18309;43.658;1.312;2023-05-07T02:23:22;16.17;;;2.55;;
31728;SDS011;18309;43.658;1.312;2023-05-07T02:25:48;17.40;;;2.60;;
31728;SDS011;18309;43.658;1.312;2023-05-07T02:28:14;10.68;;;2.35;;
31728;SDS011;18309;43.658;1.312;2023-05-07T02:30:40;15.75;;;2.80;;
31728;SDS011;18309;43.658;1.312;2023-05-07T02:33:06;15.77;;;2.63;;
31728;SDS011;18309;43.658;1.312;2023-05-07T02:35:33;19.08;;;2.92;;
31728;SDS011;18309;43.658;1.312;2023-05-07T02:37:58;9.80;;;2.55;;
31728;SDS011;18309;43.658;1.312;2023-05-07T02:40:24;12.05;;;2.58;;
31728;SDS011;18309;43.658;1.312;2023-05-07T02:42:50;17.85;;;2.97;;
31728;SDS011;18309;43.658;1.312;2023-05-07T02:45:15;14.45;;;2.47;;
31728;SDS011;18309;43.658;1.312;2023-05-07T02:47:41;11.85;;;2.22;;
31728;SDS011;18309;43.658;1.312;2023-05-07T02:50:07;15.82;;;2.80;;
31728;SDS011;18309;43.658;1.312;2023-05-07T02:52:33;15.68;;;2.72;;
31728;SDS011;18309;43.658;1.312;2023-05-07T02:54:58;16.13;;;2.70;;
31728;SDS011;18309;43.658;1.312;2023-05-07T02:57:24;16.17;;;2.70;;
31728;SDS011;18309;43.658;1.312;2023-05-07T02:59:50;16.92;;;3.28;;
31728;SDS011;18309;43.658;1.312;2023-05-07T03:02:16;11.18;;;2.28;;
31728;SDS011;18309;43.658;1.312;2023-05-07T03:04:42;16.67;;;3.05;;
31728;SDS011;18309;43.658;1.312;2023-05-07T03:07:07;16.80;;;3.00;;
31728;SDS011;18309;43.658;1.312;2023-05-07T03:09:33;16.70;;;2.75;;
31728;SDS011;18309;43.658;1.312;2023-05-07T03:12:00;17.50;;;2.85;;
31728;SDS011;18309;43.658;1.312;2023-05-07T03:14:26;24.25;;;3.45;;
31728;SDS011;18309;43.658;1.312;2023-05-07T03:16:52;11.55;;;2.55;;
31728;SDS011;18309;43.658;1.312;2023-05-07T03:19:18;18.25;;;3.42;;
31728;SDS011;18309;43.658;1.312;2023-05-07T03:21:43;21.58;;;4.03;;
31728;SDS011;18309;43.658;1.312;2023-05-07T03:24:10;17.23;;;2.90;;
31728;SDS011;18309;43.658;1.312;2023-05-07T03:26:36;13.35;;;2.50;;
31728;SDS011;18309;43.658;1.312;2023-05-07T03:29:02;12.32;;;2.53;;
31728;SDS011;18309;43.658;1.312;2023-05-07T03:31:27;14.60;;;2.72;;
31728;SDS011;18309;43.658;1.312;2023-05-07T03:33:54;9.18;;;2.58;;
31728;SDS011;18309;43.658;1.312;2023-05-07T03:36:22;20.17;;;2.60;;
31728;SDS011;18309;43.658;1.312;2023-05-07T03:38:48;19.42;;;3.25;;
31728;SDS011;18309;43.658;1.312;2023-05-07T03:41:14;16.48;;;3.10;;
31728;SDS011;18309;43.658;1.312;2023-05-07T03:43:40;25.40;;;3.33;;
31728;SDS011;18309;43.658;1.312;2023-05-07T03:46:06;17.02;;;3.10;;
31728;SDS011;18309;43.658;1.312;2023-05-07T03:48:32;14.65;;;2.80;;
31728;SDS011;18309;43.658;1.312;2023-05-07T03:50:58;13.82;;;3.05;;
31728;SDS011;18309;43.658;1.312;2023-05-07T03:53:24;21.15;;;2.83;;
31728;SDS011;18309;43.658;1.312;2023-05-07T03:55:51;17.33;;;3.30;;
31728;SDS011;18309;43.658;1.312;2023-05-07T03:58:17;20.92;;;3.53;;
31728;SDS011;18309;43.658;1.312;2023-05-07T04:00:44;17.98;;;3.90;;
31728;SDS011;18309;43.658;1.312;2023-05-07T04:03:09;15.23;;;2.67;;
31728;SDS011;18309;43.658;1.312;2023-05-07T04:05:35;13.05;;;2.22;;
31728;SDS011;18309;43.658;1.312;2023-05-07T04:08:01;18.05;;;4.10;;
31728;SDS011;18309;43.658;1.312;2023-05-07T04:10:28;11.18;;;2.75;;
31728;SDS011;18309;43.658;1.312;2023-05-07T04:12:54;11.40;;;2.50;;
31728;SDS011;18309;43.658;1.312;2023-05-07T04:15:20;12.10;;;2.67;;
31728;SDS011;18309;43.658;1.312;2023-05-07T04:17:46;21.02;;;3.50;;
31728;SDS011;18309;43.658;1.312;2023-05-07T04:20:15;16.83;;;2.85;;
31728;SDS011;18309;43.658;1.312;2023-05-07T04:22:42;22.52;;;3.67;;
31728;SDS011;18309;43.658;1.312;2023-05-07T04:25:08;9.95;;;2.55;;
31728;SDS011;18309;43.658;1.312;2023-05-07T04:27:35;14.30;;;2.42;;
31728;SDS011;18309;43.658;1.312;2023-05-07T04:30:02;15.05;;;2.45;;
31728;SDS011;18309;43.658;1.312;2023-05-07T04:32:29;12.57;;;2.78;;
31728;SDS011;18309;43.658;1.312;2023-05-07T04:34:56;10.93;;;2.72;;
31728;SDS011;18309;43.658;1.312;2023-05-07T04:37:22;23.50;;;3.40;;
31728;SDS011;18309;43.658;1.312;2023-05-07T04:39:47;15.27;;;2.70;;
31728;SDS011;18309;43.658;1.312;2023-05-07T04:42:16;14.35;;;2.72;;
31728;SDS011;18309;43.658;1.312;2023-05-07T04:44:43;18.00;;;3.03;;
31728;SDS011;18309;43.658;1.312;2023-05-07T04:47:10;12.50;;;3.25;;
31728;SDS011;18309;43.658;1.312;2023-05-07T04:49:38;18.35;;;4.03;;
31728;SDS011;18309;43.658;1.312;2023-05-07T04:52:03;18.33;;;4.35;;
31728;SDS011;18309;43.658;1.312;2023-05-07T04:54:31;14.35;;;4.55;;
31728;SDS011;18309;43.658;1.312;2023-05-07T04:56:56;18.55;;;5.13;;
31728;SDS011;18309;43.658;1.312;2023-05-07T04:59:22;16.27;;;5.90;;
31728;SDS011;18309;43.658;1.312;2023-05-07T05:01:48;22.45;;;5.00;;
31728;SDS011;18309;43.658;1.312;2023-05-07T05:04:13;17.80;;;4.88;;
31728;SDS011;18309;43.658;1.312;2023-05-07T05:06:39;17.70;;;4.18;;
31728;SDS011;18309;43.658;1.312;2023-05-07T05:09:05;23.92;;;4.45;;
31728;SDS011;18309;43.658;1.312;2023-05-07T05:11:31;18.20;;;4.20;;
31728;SDS011;18309;43.658;1.312;2023-05-07T05:13:58;16.50;;;3.30;;
31728;SDS011;18309;43.658;1.312;2023-05-07T05:16:24;18.48;;;4.20;;
31728;SDS011;18309;43.658;1.312;2023-05-07T05:18:50;20.20;;;3.88;;
31728;SDS011;18309;43.658;1.312;2023-05-07T05:21:17;11.27;;;3.60;;
31728;SDS011;18309;43.658;1.312;2023-05-07T05:23:42;18.35;;;3.25;;
31728;SDS011;18309;43.658;1.312;2023-05-07T05:26:08;20.65;;;4.50;;
31728;SDS011;18309;43.658;1.312;2023-05-07T05:28:35;19.90;;;4.25;;
31728;SDS011;18309;43.658;1.312;2023-05-07T05:31:01;18.98;;;4.20;;
31728;SDS011;18309;43.658;1.312;2023-05-07T05:33:27;17.98;;;3.33;;
31728;SDS011;18309;43.658;1.312;2023-05-07T05:35:55;18.77;;;2.83;;
31728;SDS011;18309;43.658;1.312;2023-05-07T05:38:21;13.23;;;3.20;;
31728;SDS011;18309;43.658;1.312;2023-05-07T05:40:46;16.58;;;3.78;;
31728;SDS011;18309;43.658;1.312;2023-05-07T05:43:13;15.68;;;2.83;;
31728;SDS011;18309;43.658;1.312;2023-05-07T05:45:39;12.27;;;2.90;;
31728;SDS011;18309;43.658;1.312;2023-05-07T05:48:05;12.27;;;2.70;;
31728;SDS011;18309;43.658;1.312;2023-05-07T05:50:31;13.02;;;2.72;;
31728;SDS011;18309;43.658;1.312;2023-05-07T05:52:57;14.45;;;3.35;;
31728;SDS011;18309;43.658;1.312;2023-05-07T05:55:23;12.52;;;2.28;;
31728;SDS011;18309;43.658;1.312;2023-05-07T05:57:49;16.02;;;3.33;;
31728;SDS011;18309;43.658;1.312;2023-05-07T06:00:15;14.82;;;4.05;;
31728;SDS011;18309;43.658;1.312;2023-05-07T06:02:41;20.75;;;2.90;;
31728;SDS011;18309;43.658;1.312;2023-05-07T06:05:07;15.93;;;2.83;;
31728;SDS011;18309;43.658;1.312;2023-05-07T06:07:34;21.85;;;3.97;;
31728;SDS011;18309;43.658;1.312;2023-05-07T06:10:00;13.98;;;3.40;;
31728;SDS011;18309;43.658;1.312;2023-05-07T06:12:27;11.15;;;3.08;;
31728;SDS011;18309;43.658;1.312;2023-05-07T06:14:52;17.35;;;3.40;;
31728;SDS011;18309;43.658;1.312;2023-05-07T06:17:18;16.58;;;2.88;;
31728;SDS011;18309;43.658;1.312;2023-05-07T06:19:44;17.90;;;3.20;;
31728;SDS011;18309;43.658;1.312;2023-05-07T06:22:09;20.98;;;4.03;;
31728;SDS011;18309;43.658;1.312;2023-05-07T06:24:35;14.90;;;2.53;;
31728;SDS011;18309;43.658;1.312;2023-05-07T06:27:01;12.38;;;2.92;;
31728;SDS011;18309;43.658;1.312;2023-05-07T06:29:26;21.73;;;3.75;;
31728;SDS011;18309;43.658;1.312;2023-05-07T06:31:52;23.15;;;3.60;;
31728;SDS011;18309;43.658;1.312;2023-05-07T06:34:18;17.42;;;2.90;;
31728;SDS011;18309;43.658;1.312;2023-05-07T06:36:44;13.63;;;2.55;;
31728;SDS011;18309;43.658;1.312;2023-05-07T06:39:10;15.65;;;3.80;;
31728;SDS011;18309;43.658;1.312;2023-05-07T06:41:36;24.73;;;3.30;;
31728;SDS011;18309;43.658;1.312;2023-05-07T06:44:02;15.82;;;3.22;;
31728;SDS011;18309;43.658;1.312;2023-05-07T06:46:28;18.15;;;3.05;;
31728;SDS011;18309;43.658;1.312;2023-05-07T06:48:54;17.27;;;3.03;;
31728;SDS011;18309;43.658;1.312;2023-05-07T06:51:21;18.85;;;3.25;;
31728;SDS011;18309;43.658;1.312;2023-05-07T06:53:47;20.48;;;3.38;;
31728;SDS011;18309;43.658;1.312;2023-05-07T06:56:13;23.67;;;4.03;;
31728;SDS011;18309;43.658;1.312;2023-05-07T06:58:39;14.57;;;2.97;;
31728;SDS011;18309;43.658;1.312;2023-05-07T07:01:05;14.35;;;3.20;;
31728;SDS011;18309;43.658;1.312;2023-05-07T07:03:30;28.85;;;3.47;;
31728;SDS011;18309;43.658;1.312;2023-05-07T07:05:56;14.57;;;3.20;;
31728;SDS011;18309;43.658;1.312;2023-05-07T07:08:22;20.83;;;3.38;;
31728;SDS011;18309;43.658;1.312;2023-05-07T07:10:48;20.95;;;3.20;;
31728;SDS011;18309;43.658;1.312;2023-05-07T07:13:13;16.48;;;3.13;;
31728;SDS011;18309;43.658;1.312;2023-05-07T07:15:39;20.58;;;3.40;;
31728;SDS011;18309;43.658;1.312;2023-05-07T07:18:05;17.38;;;3.08;;
31728;SDS011;18309;43.658;1.312;2023-05-07T07:20:32;18.42;;;3.75;;
31728;SDS011;18309;43.658;1.312;2023-05-07T07:22:57;23.73;;;3.15;;
31728;SDS011;18309;43.658;1.312;2023-05-07T07:25:25;15.77;;;3.05;;
31728;SDS011;18309;43.658;1.312;2023-05-07T07:27:50;19.92;;;3.20;;
31728;SDS011;18309;43.658;1.312;2023-05-07T07:30:16;21.33;;;3.70;;
31728;SDS011;18309;43.658;1.312;2023-05-07T07:32:42;14.60;;;3.13;;
31728;SDS011;18309;43.658;1.312;2023-05-07T07:35:07;20.52;;;3.88;;
31728;SDS011;18309;43.658;1.312;2023-05-07T07:37:33;18.80;;;3.15;;
31728;SDS011;18309;43.658;1.312;2023-05-07T07:39:59;18.45;;;4.13;;
31728;SDS011;18309;43.658;1.312;2023-05-07T07:42:25;16.13;;;3.15;;
31728;SDS011;18309;43.658;1.312;2023-05-07T07:44:52;14.15;;;2.90;;
31728;SDS011;18309;43.658;1.312;2023-05-07T07:47:17;23.30;;;4.47;;
31728;SDS011;18309;43.658;1.312;2023-05-07T07:49:43;17.35;;;2.97;;
31728;SDS011;18309;43.658;1.312;2023-05-07T07:52:09;20.63;;;3.08;;
31728;SDS011;18309;43.658;1.312;2023-05-07T07:54:34;9.73;;;3.00;;
31728;SDS011;18309;43.658;1.312;2023-05-07T07:57:00;19.80;;;3.05;;
31728;SDS011;18309;43.658;1.312;2023-05-07T07:59:28;24.48;;;3.42;;
31728;SDS011;18309;43.658;1.312;2023-05-07T08:01:53;25.48;;;3.95;;
31728;SDS011;18309;43.658;1.312;2023-05-07T08:04:21;25.67;;;4.22;;
31728;SDS011;18309;43.658;1.312;2023-05-07T08:06:47;26.05;;;3.95;;
31728;SDS011;18309;43.658;1.312;2023-05-07T08:09:13;23.60;;;3.60;;
31728;SDS011;18309;43.658;1.312;2023-05-07T08:11:39;17.55;;;3.50;;
31728;SDS011;18309;43.658;1.312;2023-05-07T08:14:05;13.35;;;3.10;;
31728;SDS011;18309;43.658;1.312;2023-05-07T08:16:31;15.15;;;3.28;;
31728;SDS011;18309;43.658;1.312;2023-05-07T08:18:57;17.20;;;3.45;;
31728;SDS011;18309;43.658;1.312;2023-05-07T08:21:22;16.40;;;3.03;;
31728;SDS011;18309;43.658;1.312;2023-05-07T08:23:48;17.55;;;3.58;;
31728;SDS011;18309;43.658;1.312;2023-05-07T08:26:14;17.48;;;3.15;;
31728;SDS011;18309;43.658;1.312;2023-05-07T08:28:40;20.42;;;3.38;;
31728;SDS011;18309;43.658;1.312;2023-05-07T08:31:05;17.92;;;3.20;;
31728;SDS011;18309;43.658;1.312;2023-05-07T08:33:31;11.23;;;3.25;;
31728;SDS011;18309;43.658;1.312;2023-05-07T08:35:57;16.15;;;3.20;;
31728;SDS011;18309;43.658;1.312;2023-05-07T08:38:23;19.45;;;3.50;;
31728;SDS011;18309;43.658;1.312;2023-05-07T08:40:49;44.22;;;5.35;;
31728;SDS011;18309;43.658;1.312;2023-05-07T08:43:15;14.23;;;3.22;;
31728;SDS011;18309;43.658;1.312;2023-05-07T08:45:41;19.05;;;3.22;;
31728;SDS011;18309;43.658;1.312;2023-05-07T08:48:14;21.52;;;3.70;;
31728;SDS011;18309;43.658;1.312;2023-05-07T08:50:41;17.25;;;2.97;;
31728;SDS011;18309;43.658;1.312;2023-05-07T08:53:07;24.90;;;4.20;;
31728;SDS011;18309;43.658;1.312;2023-05-07T08:55:33;18.77;;;3.67;;
31728;SDS011;18309;43.658;1.312;2023-05-07T08:57:59;14.75;;;3.70;;
31728;SDS011;18309;43.658;1.312;2023-05-07T09:00:25;13.98;;;3.58;;
31728;SDS011;18309;43.658;1.312;2023-05-07T09:02:52;21.63;;;4.05;;
31728;SDS011;18309;43.658;1.312;2023-05-07T09:05:18;25.42;;;3.70;;
31728;SDS011;18309;43.658;1.312;2023-05-07T09:07:44;15.68;;;3.17;;
31728;SDS011;18309;43.658;1.312;2023-05-07T09:10:11;17.80;;;3.08;;
31728;SDS011;18309;43.658;1.312;2023-05-07T09:12:37;18.95;;;3.65;;
31728;SDS011;18309;43.658;1.312;2023-05-07T09:15:04;15.10;;;3.15;;
31728;SDS011;18309;43.658;1.312;2023-05-07T09:17:30;15.63;;;2.85;;
31728;SDS011;18309;43.658;1.312;2023-05-07T09:19:56;16.35;;;3.72;;
31728;SDS011;18309;43.658;1.312;2023-05-07T09:22:31;16.80;;;3.05;;
31728;SDS011;18309;43.658;1.312;2023-05-07T09:25:06;25.55;;;4.15;;
31728;SDS011;18309;43.658;1.312;2023-05-07T09:27:33;18.23;;;3.88;;
31728;SDS011;18309;43.658;1.312;2023-05-07T09:29:58;21.92;;;4.53;;
31728;SDS011;18309;43.658;1.312;2023-05-07T09:32:24;18.23;;;3.20;;
31728;SDS011;18309;43.658;1.312;2023-05-07T09:34:52;15.38;;;3.15;;
31728;SDS011;18309;43.658;1.312;2023-05-07T09:37:17;17.73;;;3.38;;
31728;SDS011;18309;43.658;1.312;2023-05-07T09:39:48;15.80;;;4.47;;
31728;SDS011;18309;43.658;1.312;2023-05-07T09:42:16;20.40;;;4.10;;
31728;SDS011;18309;43.658;1.312;2023-05-07T09:44:49;14.57;;;3.13;;
31728;SDS011;18309;43.658;1.312;2023-05-07T09:47:18;15.02;;;3.30;;
31728;SDS011;18309;43.658;1.312;2023-05-07T09:49:49;19.02;;;3.95;;
31728;SDS011;18309;43.658;1.312;2023-05-07T09:52:16;13.70;;;3.03;;
31728;SDS011;18309;43.658;1.312;2023-05-07T09:54:42;24.20;;;3.88;;
31728;SDS011;18309;43.658;1.312;2023-05-07T09:57:10;21.40;;;3.83;;
31728;SDS011;18309;43.658;1.312;2023-05-07T09:59:37;15.95;;;3.53;;
31728;SDS011;18309;43.658;1.312;2023-05-07T10:02:03;21.05;;;3.67;;
31728;SDS011;18309;43.658;1.312;2023-05-07T10:04:30;17.38;;;3.55;;
31728;SDS011;18309;43.658;1.312;2023-05-07T10:06:57;17.23;;;3.28;;
31728;SDS011;18309;43.658;1.312;2023-05-07T10:09:23;19.52;;;4.00;;
31728;SDS011;18309;43.658;1.312;2023-05-07T10:11:52;19.77;;;3.53;;
31728;SDS011;18309;43.658;1.312;2023-05-07T10:14:20;31.38;;;5.13;;
31728;SDS011;18309;43.658;1.312;2023-05-07T10:16:46;18.35;;;3.85;;
31728;SDS011;18309;43.658;1.312;2023-05-07T10:19:13;29.45;;;4.47;;
31728;SDS011;18309;43.658;1.312;2023-05-07T10:21:42;19.63;;;3.60;;
31728;SDS011;18309;43.658;1.312;2023-05-07T10:24:35;23.38;;;3.95;;
31728;SDS011;18309;43.658;1.312;2023-05-07T10:26:59;20.63;;;3.05;;
31728;SDS011;18309;43.658;1.312;2023-05-07T10:34:58;25.38;;;4.75;;
31728;SDS011;18309;43.658;1.312;2023-05-07T10:37:27;25.80;;;3.78;;
31728;SDS011;18309;43.658;1.312;2023-05-07T10:39:54;20.05;;;4.43;;
31728;SDS011;18309;43.658;1.312;2023-05-07T10:42:20;24.95;;;4.60;;
31728;SDS011;18309;43.658;1.312;2023-05-07T10:44:45;27.48;;;4.28;;
31728;SDS011;18309;43.658;1.312;2023-05-07T10:47:12;19.42;;;3.60;;
31728;SDS011;18309;43.658;1.312;2023-05-07T10:52:16;19.85;;;3.85;;
31728;SDS011;18309;43.658;1.312;2023-05-07T10:55:36;15.80;;;2.92;;
31728;SDS011;18309;43.658;1.312;2023-05-07T10:57:39;22.33;;;3.50;;
31728;SDS011;18309;43.658;1.312;2023-05-07T11:05:29;17.02;;;3.10;;
31728;SDS011;18309;43.658;1.312;2023-05-07T11:08:02;14.82;;;3.60;;
31728;SDS011;18309;43.658;1.312;2023-05-07T11:13:18;20.83;;;4.00;;
31728;SDS011;18309;43.658;1.312;2023-05-07T11:16:04;20.83;;;3.97;;
31728;SDS011;18309;43.658;1.312;2023-05-07T11:18:48;20.38;;;3.25;;
31728;SDS011;18309;43.658;1.312;2023-05-07T11:21:33;16.33;;;2.95;;
31728;SDS011;18309;43.658;1.312;2023-05-07T11:24:05;19.30;;;4.22;;
31728;SDS011;18309;43.658;1.312;2023-05-07T11:26:41;23.80;;;3.83;;
31728;SDS011;18309;43.658;1.312;2023-05-07T11:29:14;13.13;;;2.85;;
31728;SDS011;18309;43.658;1.312;2023-05-07T11:31:41;18.02;;;3.08;;
31728;SDS011;18309;43.658;1.312;2023-05-07T11:34:07;24.50;;;3.30;;
31728;SDS011;18309;43.658;1.312;2023-05-07T11:36:34;16.42;;;3.60;;
31728;SDS011;18309;43.658;1.312;2023-05-07T11:39:22;13.05;;;2.53;;
31728;SDS011;18309;43.658;1.312;2023-05-07T11:41:48;19.00;;;3.08;;
31728;SDS011;18309;43.658;1.312;2023-05-07T11:44:14;17.90;;;3.30;;
31728;SDS011;18309;43.658;1.312;2023-05-07T11:46:44;27.13;;;3.40;;
31728;SDS011;18309;43.658;1.312;2023-05-07T11:49:10;12.05;;;2.38;;
31728;SDS011;18309;43.658;1.312;2023-05-07T11:51:36;14.52;;;2.83;;
31728;SDS011;18309;43.658;1.312;2023-05-07T11:54:03;15.13;;;3.03;;
31728;SDS011;18309;43.658;1.312;2023-05-07T11:56:33;10.27;;;2.45;;
31728;SDS011;18309;43.658;1.312;2023-05-07T11:59:00;12.00;;;2.20;;
31728;SDS011;18309;43.658;1.312;2023-05-07T12:01:26;13.25;;;3.00;;
31728;SDS011;18309;43.658;1.312;2023-05-07T12:03:52;18.48;;;2.90;;
31728;SDS011;18309;43.658;1.312;2023-05-07T12:06:17;18.33;;;3.15;;
31728;SDS011;18309;43.658;1.312;2023-05-07T12:08:44;15.57;;;3.10;;
31728;SDS011;18309;43.658;1.312;2023-05-07T12:11:15;9.52;;;2.45;;
31728;SDS011;18309;43.658;1.312;2023-05-07T12:13:46;13.70;;;2.55;;
31728;SDS011;18309;43.658;1.312;2023-05-07T12:16:13;16.88;;;3.15;;
31728;SDS011;18309;43.658;1.312;2023-05-07T12:18:39;20.63;;;3.63;;
31728;SDS011;18309;43.658;1.312;2023-05-07T12:21:05;13.13;;;3.20;;
31728;SDS011;18309;43.658;1.312;2023-05-07T12:23:33;10.73;;;2.38;;
31728;SDS011;18309;43.658;1.312;2023-05-07T12:25:59;11.25;;;2.45;;
31728;SDS011;18309;43.658;1.312;2023-05-07T12:28:25;10.55;;;2.30;;
31728;SDS011;18309;43.658;1.312;2023-05-07T12:30:51;18.55;;;2.83;;
31728;SDS011;18309;43.658;1.312;2023-05-07T12:33:18;14.75;;;2.63;;
31728;SDS011;18309;43.658;1.312;2023-05-07T12:38:14;14.32;;;2.45;;
31728;SDS011;18309;43.658;1.312;2023-05-07T12:40:45;13.52;;;1.98;;
31728;SDS011;18309;43.658;1.312;2023-05-07T12:45:51;7.90;;;2.05;;
31728;SDS011;18309;43.658;1.312;2023-05-07T12:48:19;13.07;;;2.33;;
31728;SDS011;18309;43.658;1.312;2023-05-07T12:50:48;10.45;;;2.10;;
31728;SDS011;18309;43.658;1.312;2023-05-07T12:53:15;11.25;;;2.20;;
31728;SDS011;18309;43.658;1.312;2023-05-07T12:55:44;10.48;;;1.90;;
31728;SDS011;18309;43.658;1.312;2023-05-07T12:58:15;16.15;;;2.85;;
31728;SDS011;18309;43.658;1.312;2023-05-07T13:00:45;9.23;;;2.42;;
31728;SDS011;18309;43.658;1.312;2023-05-07T13:03:20;13.68;;;3.05;;
31728;SDS011;18309;43.658;1.312;2023-05-07T13:05:48;12.00;;;2.20;;
31728;SDS011;18309;43.658;1.312;2023-05-07T13:08:25;11.73;;;2.08;;
31728;SDS011;18309;43.658;1.312;2023-05-07T13:10:56;8.43;;;1.52;;
31728;SDS011;18309;43.658;1.312;2023-05-07T13:13:23;9.40;;;1.98;;
31728;SDS011;18309;43.658;1.312;2023-05-07T13:15:48;8.65;;;2.17;;
31728;SDS011;18309;43.658;1.312;2023-05-07T13:18:14;10.77;;;2.45;;
31728;SDS011;18309;43.658;1.312;2023-05-07T13:20:40;8.50;;;2.15;;
31728;SDS011;18309;43.658;1.312;2023-05-07T13:23:05;12.07;;;2.22;;
31728;SDS011;18309;43.658;1.312;2023-05-07T13:25:31;10.52;;;1.90;;
31728;SDS011;18309;43.658;1.312;2023-05-07T13:27:57;11.38;;;1.75;;
31728;SDS011;18309;43.658;1.312;2023-05-07T13:30:23;6.50;;;1.60;;
31728;SDS011;18309;43.658;1.312;2023-05-07T13:32:48;12.30;;;2.00;;
31728;SDS011;18309;43.658;1.312;2023-05-07T13:35:15;15.07;;;2.33;;
31728;SDS011;18309;43.658;1.312;2023-05-07T13:37:41;7.93;;;2.13;;
31728;SDS011;18309;43.658;1.312;2023-05-07T13:40:07;11.38;;;2.67;;
31728;SDS011;18309;43.658;1.312;2023-05-07T13:42:33;9.98;;;2.55;;
31728;SDS011;18309;43.658;1.312;2023-05-07T13:44:59;7.80;;;2.22;;
31728;SDS011;18309;43.658;1.312;2023-05-07T13:47:25;14.18;;;3.13;;
31728;SDS011;18309;43.658;1.312;2023-05-07T13:49:51;10.93;;;2.15;;
31728;SDS011;18309;43.658;1.312;2023-05-07T13:52:17;12.05;;;2.28;;
31728;SDS011;18309;43.658;1.312;2023-05-07T13:54:43;10.70;;;2.13;;
31728;SDS011;18309;43.658;1.312;2023-05-07T13:57:08;11.05;;;2.47;;
31728;SDS011;18309;43.658;1.312;2023-05-07T13:59:34;7.25;;;1.70;;
31728;SDS011;18309;43.658;1.312;2023-05-07T14:02:00;8.70;;;1.83;;
31728;SDS011;18309;43.658;1.312;2023-05-07T14:04:26;14.88;;;2.15;;
31728;SDS011;18309;43.658;1.312;2023-05-07T14:06:51;10.23;;;2.08;;
31728;SDS011;18309;43.658;1.312;2023-05-07T14:09:17;11.35;;;2.17;;
31728;SDS011;18309;43.658;1.312;2023-05-07T14:11:42;9.05;;;1.65;;
31728;SDS011;18309;43.658;1.312;2023-05-07T14:14:08;9.10;;;1.80;;
31728;SDS011;18309;43.658;1.312;2023-05-07T14:16:37;14.52;;;1.48;;
31728;SDS011;18309;43.658;1.312;2023-05-07T14:19:02;5.68;;;1.40;;
31728;SDS011;18309;43.658;1.312;2023-05-07T14:21:28;9.60;;;1.90;;
31728;SDS011;18309;43.658;1.312;2023-05-07T14:23:55;9.48;;;2.33;;
31728;SDS011;18309;43.658;1.312;2023-05-07T14:26:21;7.47;;;1.83;;
31728;SDS011;18309;43.658;1.312;2023-05-07T14:28:48;8.45;;;1.90;;
31728;SDS011;18309;43.658;1.312;2023-05-07T14:31:14;9.35;;;1.63;;
31728;SDS011;18309;43.658;1.312;2023-05-07T14:33:39;12.27;;;1.70;;
31728;SDS011;18309;43.658;1.312;2023-05-07T14:36:05;5.80;;;1.20;;
31728;SDS011;18309;43.658;1.312;2023-05-07T14:38:31;8.95;;;1.95;;
31728;SDS011;18309;43.658;1.312;2023-05-07T14:40:58;13.27;;;1.95;;
31728;SDS011;18309;43.658;1.312;2023-05-07T14:43:23;15.15;;;3.03;;
31728;SDS011;18309;43.658;1.312;2023-05-07T14:45:49;11.32;;;2.03;;
31728;SDS011;18309;43.658;1.312;2023-05-07T14:48:15;11.35;;;2.20;;
31728;SDS011;18309;43.658;1.312;2023-05-07T14:50:42;9.48;;;1.52;;
31728;SDS011;18309;43.658;1.312;2023-05-07T14:53:08;10.65;;;1.77;;
31728;SDS011;18309;43.658;1.312;2023-05-07T14:55:34;13.75;;;2.42;;
31728;SDS011;18309;43.658;1.312;2023-05-07T14:58:00;8.60;;;1.48;;